sensor_id;sensor_type;location;lat;lon;timestamp;P1;durP1;ratioP1;P2;durP2;ratioP2
23290;SDS011;11814;44.686;10.842;2023-02-28T00:01:00;19.38;;;10.88;;
23290;SDS011;11814;44.686;10.842;2023-02-28T00:03:26;21.95;;;10.68;;
23290;SDS011;11814;44.686;10.842;2023-02-28T00:05:52;22.38;;;10.20;;
23290;SDS011;11814;44.686;10.842;2023-02-28T00:08:17;17.25;;;10.52;;
23290;SDS011;11814;44.686;10.842;2023-02-28T00:10:43;19.27;;;9.60;;
23290;SDS011;11814;44.686;10.842;2023-02-28T00:13:09;18.98;;;10.52;;
23290;SDS011;11814;44.686;10.842;2023-02-28T00:15:35;16.70;;;9.10;;
23290;SDS011;11814;44.686;10.842;2023-02-28T00:18:02;17.48;;;9.68;;
23290;SDS011;11814;44.686;10.842;2023-02-28T00:20:28;19.58;;;9.82;;
23290;SDS011;11814;44.686;10.842;2023-02-28T00:22:54;16.42;;;9.40;;
23290;SDS011;11814;44.686;10.842;2023-02-28T00:25:22;14.65;;;9.35;;
23290;SDS011;11814;44.686;10.842;2023-02-28T00:27:49;18.83;;;10.98;;
23290;SDS011;11814;44.686;10.842;2023-02-28T00:30:16;16.95;;;9.02;;
23290;SDS011;11814;44.686;10.842;2023-02-28T00:32:44;17.80;;;9.95;;
23290;SDS011;11814;44.686;10.842;2023-02-28T00:35:10;15.70;;;9.40;;
23290;SDS011;11814;44.686;10.842;2023-02-28T00:37:37;19.35;;;9.90;;
23290;SDS011;11814;44.686;10.842;2023-02-28T00:40:03;15.52;;;9.10;;
23290;SDS011;11814;44.686;10.842;2023-02-28T00:42:30;19.38;;;9.65;;
23290;SDS011;11814;44.686;10.842;2023-02-28T00:44:57;16.60;;;8.95;;
23290;SDS011;11814;44.686;10.842;2023-02-28T00:47:22;19.27;;;9.48;;
23290;SDS011;11814;44.686;10.842;2023-02-28T00:49:48;16.85;;;9.93;;
23290;SDS011;11814;44.686;10.842;2023-02-28T00:52:14;15.70;;;9.50;;
23290;SDS011;11814;44.686;10.842;2023-02-28T00:54:39;15.40;;;9.57;;
23290;SDS011;11814;44.686;10.842;2023-02-28T00:57:05;15.63;;;10.00;;
23290;SDS011;11814;44.686;10.842;2023-02-28T00:59:31;19.40;;;10.07;;
23290;SDS011;11814;44.686;10.842;2023-02-28T01:01:57;20.10;;;9.98;;
23290;SDS011;11814;44.686;10.842;2023-02-28T01:04:22;19.50;;;9.90;;
23290;SDS011;11814;44.686;10.842;2023-02-28T01:06:48;18.65;;;10.02;;
23290;SDS011;11814;44.686;10.842;2023-02-28T01:09:14;19.10;;;9.45;;
23290;SDS011;11814;44.686;10.842;2023-02-28T01:11:40;17.08;;;9.93;;
23290;SDS011;11814;44.686;10.842;2023-02-28T01:14:09;15.63;;;9.38;;
23290;SDS011;11814;44.686;10.842;2023-02-28T01:16:40;19.50;;;9.90;;
23290;SDS011;11814;44.686;10.842;2023-02-28T01:19:06;19.48;;;10.23;;
23290;SDS011;11814;44.686;10.842;2023-02-28T01:21:32;19.65;;;10.00;;
23290;SDS011;11814;44.686;10.842;2023-02-28T01:23:58;17.77;;;10.32;;
23290;SDS011;11814;44.686;10.842;2023-02-28T01:26:23;19.92;;;10.43;;
23290;SDS011;11814;44.686;10.842;2023-02-28T01:28:50;15.10;;;10.00;;
23290;SDS011;11814;44.686;10.842;2023-02-28T01:31:17;18.17;;;11.05;;
23290;SDS011;11814;44.686;10.842;2023-02-28T01:33:43;24.90;;;10.27;;
23290;SDS011;11814;44.686;10.842;2023-02-28T01:36:17;17.27;;;10.75;;
23290;SDS011;11814;44.686;10.842;2023-02-28T01:38:45;18.25;;;9.77;;
23290;SDS011;11814;44.686;10.842;2023-02-28T01:41:25;13.55;;;10.02;;
23290;SDS011;11814;44.686;10.842;2023-02-28T01:43:54;18.20;;;10.18;;
23290;SDS011;11814;44.686;10.842;2023-02-28T01:46:20;16.77;;;10.85;;
23290;SDS011;11814;44.686;10.842;2023-02-28T01:51:42;16.83;;;11.00;;
23290;SDS011;11814;44.686;10.842;2023-02-28T01:54:13;13.60;;;9.85;;
23290;SDS011;11814;44.686;10.842;2023-02-28T01:56:47;17.23;;;9.90;;
23290;SDS011;11814;44.686;10.842;2023-02-28T01:59:20;15.35;;;9.02;;
23290;SDS011;11814;44.686;10.842;2023-02-28T02:01:48;14.80;;;9.07;;
23290;SDS011;11814;44.686;10.842;2023-02-28T02:04:15;15.48;;;9.88;;
23290;SDS011;11814;44.686;10.842;2023-02-28T02:06:42;17.50;;;9.68;;
23290;SDS011;11814;44.686;10.842;2023-02-28T02:09:11;16.55;;;9.50;;
23290;SDS011;11814;44.686;10.842;2023-02-28T02:11:37;13.68;;;9.40;;
23290;SDS011;11814;44.686;10.842;2023-02-28T02:19:44;16.83;;;9.25;;
23290;SDS011;11814;44.686;10.842;2023-02-28T02:24:54;15.35;;;9.13;;
23290;SDS011;11814;44.686;10.842;2023-02-28T02:41:16;13.15;;;9.00;;
23290;SDS011;11814;44.686;10.842;2023-02-28T02:43:55;14.45;;;9.10;;
23290;SDS011;11814;44.686;10.842;2023-02-28T02:46:31;15.25;;;8.88;;
23290;SDS011;11814;44.686;10.842;2023-02-28T02:49:03;12.00;;;8.63;;
23290;SDS011;11814;44.686;10.842;2023-02-28T02:51:37;15.80;;;9.25;;
23290;SDS011;11814;44.686;10.842;2023-02-28T02:54:08;14.77;;;9.23;;
23290;SDS011;11814;44.686;10.842;2023-02-28T02:56:39;15.38;;;9.32;;
23290;SDS011;11814;44.686;10.842;2023-02-28T02:59:10;15.98;;;9.77;;
23290;SDS011;11814;44.686;10.842;2023-02-28T03:01:38;14.02;;;9.35;;
23290;SDS011;11814;44.686;10.842;2023-02-28T03:04:10;15.18;;;9.18;;
23290;SDS011;11814;44.686;10.842;2023-02-28T03:06:39;14.20;;;8.85;;
23290;SDS011;11814;44.686;10.842;2023-02-28T03:09:04;14.32;;;9.35;;
23290;SDS011;11814;44.686;10.842;2023-02-28T03:11:30;11.90;;;8.77;;
23290;SDS011;11814;44.686;10.842;2023-02-28T03:16:45;15.73;;;9.85;;
23290;SDS011;11814;44.686;10.842;2023-02-28T03:32:43;16.02;;;9.35;;
23290;SDS011;11814;44.686;10.842;2023-02-28T03:35:25;17.33;;;9.90;;
23290;SDS011;11814;44.686;10.842;2023-02-28T03:38:03;12.85;;;9.43;;
23290;SDS011;11814;44.686;10.842;2023-02-28T03:40:39;13.93;;;9.38;;
23290;SDS011;11814;44.686;10.842;2023-02-28T03:43:10;13.68;;;9.73;;
23290;SDS011;11814;44.686;10.842;2023-02-28T03:45:39;15.77;;;9.40;;
23290;SDS011;11814;44.686;10.842;2023-02-28T03:50:53;14.82;;;9.50;;
23290;SDS011;11814;44.686;10.842;2023-02-28T03:53:28;14.02;;;9.35;;
23290;SDS011;11814;44.686;10.842;2023-02-28T03:56:03;14.77;;;9.68;;
23290;SDS011;11814;44.686;10.842;2023-02-28T03:58:39;15.95;;;9.55;;
23290;SDS011;11814;44.686;10.842;2023-02-28T04:03:40;13.48;;;10.07;;
23290;SDS011;11814;44.686;10.842;2023-02-28T04:06:07;15.60;;;11.02;;
23290;SDS011;11814;44.686;10.842;2023-02-28T04:08:39;15.30;;;9.88;;
23290;SDS011;11814;44.686;10.842;2023-02-28T04:11:12;16.88;;;11.10;;
23290;SDS011;11814;44.686;10.842;2023-02-28T04:13:43;13.85;;;10.35;;
23290;SDS011;11814;44.686;10.842;2023-02-28T04:16:09;15.98;;;11.52;;
23290;SDS011;11814;44.686;10.842;2023-02-28T04:18:40;17.23;;;11.57;;
23290;SDS011;11814;44.686;10.842;2023-02-28T04:21:08;18.83;;;11.52;;
23290;SDS011;11814;44.686;10.842;2023-02-28T04:23:34;18.00;;;11.70;;
23290;SDS011;11814;44.686;10.842;2023-02-28T04:26:00;15.45;;;11.23;;
23290;SDS011;11814;44.686;10.842;2023-02-28T04:28:26;19.85;;;10.80;;
23290;SDS011;11814;44.686;10.842;2023-02-28T04:30:58;14.93;;;10.60;;
23290;SDS011;11814;44.686;10.842;2023-02-28T04:33:27;16.83;;;11.13;;
23290;SDS011;11814;44.686;10.842;2023-02-28T04:36:03;16.40;;;11.02;;
23290;SDS011;11814;44.686;10.842;2023-02-28T04:38:33;18.30;;;10.88;;
23290;SDS011;11814;44.686;10.842;2023-02-28T04:41:00;18.70;;;11.68;;
23290;SDS011;11814;44.686;10.842;2023-02-28T04:43:26;15.68;;;10.68;;
23290;SDS011;11814;44.686;10.842;2023-02-28T04:45:53;16.00;;;11.20;;
23290;SDS011;11814;44.686;10.842;2023-02-28T04:48:25;18.73;;;11.80;;
23290;SDS011;11814;44.686;10.842;2023-02-28T04:50:53;16.02;;;11.68;;
23290;SDS011;11814;44.686;10.842;2023-02-28T04:53:19;16.67;;;11.77;;
23290;SDS011;11814;44.686;10.842;2023-02-28T04:55:45;15.90;;;10.35;;
23290;SDS011;11814;44.686;10.842;2023-02-28T04:58:11;17.20;;;11.18;;
23290;SDS011;11814;44.686;10.842;2023-02-28T05:00:37;16.08;;;11.90;;
23290;SDS011;11814;44.686;10.842;2023-02-28T05:03:04;17.45;;;10.95;;
23290;SDS011;11814;44.686;10.842;2023-02-28T05:05:29;16.05;;;11.77;;
23290;SDS011;11814;44.686;10.842;2023-02-28T05:07:55;16.13;;;11.68;;
23290;SDS011;11814;44.686;10.842;2023-02-28T05:10:24;19.15;;;11.98;;
23290;SDS011;11814;44.686;10.842;2023-02-28T05:12:50;18.05;;;11.40;;
23290;SDS011;11814;44.686;10.842;2023-02-28T05:15:16;17.77;;;11.82;;
23290;SDS011;11814;44.686;10.842;2023-02-28T05:17:42;16.90;;;10.93;;
23290;SDS011;11814;44.686;10.842;2023-02-28T05:20:08;17.92;;;12.02;;
23290;SDS011;11814;44.686;10.842;2023-02-28T05:22:44;19.92;;;11.90;;
23290;SDS011;11814;44.686;10.842;2023-02-28T05:25:13;19.42;;;12.25;;
23290;SDS011;11814;44.686;10.842;2023-02-28T05:27:43;15.27;;;11.30;;
23290;SDS011;11814;44.686;10.842;2023-02-28T05:30:09;17.90;;;12.20;;
23290;SDS011;11814;44.686;10.842;2023-02-28T05:32:39;21.63;;;11.75;;
23290;SDS011;11814;44.686;10.842;2023-02-28T05:35:09;18.55;;;12.27;;
23290;SDS011;11814;44.686;10.842;2023-02-28T05:37:36;18.60;;;12.70;;
23290;SDS011;11814;44.686;10.842;2023-02-28T05:40:03;16.80;;;11.32;;
23290;SDS011;11814;44.686;10.842;2023-02-28T05:42:36;16.15;;;10.65;;
23290;SDS011;11814;44.686;10.842;2023-02-28T05:45:02;19.77;;;11.40;;
23290;SDS011;11814;44.686;10.842;2023-02-28T05:47:29;18.00;;;12.27;;
23290;SDS011;11814;44.686;10.842;2023-02-28T05:49:55;18.17;;;11.40;;
23290;SDS011;11814;44.686;10.842;2023-02-28T05:52:21;20.60;;;12.20;;
23290;SDS011;11814;44.686;10.842;2023-02-28T05:54:47;16.63;;;11.80;;
23290;SDS011;11814;44.686;10.842;2023-02-28T05:57:13;17.23;;;11.18;;
23290;SDS011;11814;44.686;10.842;2023-02-28T05:59:39;19.30;;;11.52;;
23290;SDS011;11814;44.686;10.842;2023-02-28T06:02:05;19.70;;;11.32;;
23290;SDS011;11814;44.686;10.842;2023-02-28T06:04:36;18.83;;;11.90;;
23290;SDS011;11814;44.686;10.842;2023-02-28T06:07:02;21.45;;;11.48;;
23290;SDS011;11814;44.686;10.842;2023-02-28T06:09:28;21.75;;;12.32;;
23290;SDS011;11814;44.686;10.842;2023-02-28T06:11:54;17.00;;;11.15;;
23290;SDS011;11814;44.686;10.842;2023-02-28T06:14:22;18.48;;;11.75;;
23290;SDS011;11814;44.686;10.842;2023-02-28T06:16:47;21.45;;;11.18;;
23290;SDS011;11814;44.686;10.842;2023-02-28T06:19:13;16.92;;;11.77;;
23290;SDS011;11814;44.686;10.842;2023-02-28T06:21:40;18.25;;;11.85;;
23290;SDS011;11814;44.686;10.842;2023-02-28T06:24:06;17.15;;;11.85;;
23290;SDS011;11814;44.686;10.842;2023-02-28T06:26:32;18.98;;;12.35;;
23290;SDS011;11814;44.686;10.842;2023-02-28T06:28:58;19.77;;;12.27;;
23290;SDS011;11814;44.686;10.842;2023-02-28T06:31:25;21.70;;;12.43;;
23290;SDS011;11814;44.686;10.842;2023-02-28T06:33:51;17.38;;;11.70;;
23290;SDS011;11814;44.686;10.842;2023-02-28T06:36:17;16.42;;;10.95;;
23290;SDS011;11814;44.686;10.842;2023-02-28T06:38:43;17.70;;;11.98;;
23290;SDS011;11814;44.686;10.842;2023-02-28T06:41:09;16.83;;;11.60;;
23290;SDS011;11814;44.686;10.842;2023-02-28T06:43:37;20.67;;;12.32;;
23290;SDS011;11814;44.686;10.842;2023-02-28T06:46:06;24.05;;;11.65;;
23290;SDS011;11814;44.686;10.842;2023-02-28T06:48:33;19.90;;;12.15;;
23290;SDS011;11814;44.686;10.842;2023-02-28T06:51:18;19.77;;;12.43;;
23290;SDS011;11814;44.686;10.842;2023-02-28T06:53:47;29.67;;;13.45;;
23290;SDS011;11814;44.686;10.842;2023-02-28T06:56:14;21.75;;;12.80;;
23290;SDS011;11814;44.686;10.842;2023-02-28T06:58:40;20.40;;;13.20;;
23290;SDS011;11814;44.686;10.842;2023-02-28T07:01:07;17.02;;;11.43;;
23290;SDS011;11814;44.686;10.842;2023-02-28T07:03:34;21.67;;;12.38;;
23290;SDS011;11814;44.686;10.842;2023-02-28T07:06:01;20.80;;;13.65;;
23290;SDS011;11814;44.686;10.842;2023-02-28T07:08:27;17.92;;;13.60;;
23290;SDS011;11814;44.686;10.842;2023-02-28T07:10:54;20.05;;;13.27;;
23290;SDS011;11814;44.686;10.842;2023-02-28T07:13:21;19.48;;;13.23;;
23290;SDS011;11814;44.686;10.842;2023-02-28T07:15:54;27.23;;;13.95;;
23290;SDS011;11814;44.686;10.842;2023-02-28T07:18:29;20.95;;;13.23;;
23290;SDS011;11814;44.686;10.842;2023-02-28T07:20:56;24.35;;;13.00;;
23290;SDS011;11814;44.686;10.842;2023-02-28T07:23:21;17.63;;;12.25;;
23290;SDS011;11814;44.686;10.842;2023-02-28T07:25:49;20.60;;;12.90;;
23290;SDS011;11814;44.686;10.842;2023-02-28T07:28:15;20.23;;;12.63;;
23290;SDS011;11814;44.686;10.842;2023-02-28T07:30:41;19.67;;;13.13;;
23290;SDS011;11814;44.686;10.842;2023-02-28T07:33:07;20.23;;;13.25;;
23290;SDS011;11814;44.686;10.842;2023-02-28T07:35:33;17.58;;;12.82;;
23290;SDS011;11814;44.686;10.842;2023-02-28T07:37:59;21.40;;;13.45;;
23290;SDS011;11814;44.686;10.842;2023-02-28T07:40:25;22.65;;;13.52;;
23290;SDS011;11814;44.686;10.842;2023-02-28T07:42:51;20.77;;;12.65;;
23290;SDS011;11814;44.686;10.842;2023-02-28T07:45:17;24.13;;;12.93;;
23290;SDS011;11814;44.686;10.842;2023-02-28T07:47:43;20.00;;;12.30;;
23290;SDS011;11814;44.686;10.842;2023-02-28T07:50:10;20.17;;;12.73;;
23290;SDS011;11814;44.686;10.842;2023-02-28T07:52:38;23.23;;;13.88;;
23290;SDS011;11814;44.686;10.842;2023-02-28T07:55:04;20.35;;;13.02;;
23290;SDS011;11814;44.686;10.842;2023-02-28T07:57:31;19.73;;;12.95;;
23290;SDS011;11814;44.686;10.842;2023-02-28T07:59:57;22.70;;;13.82;;
23290;SDS011;11814;44.686;10.842;2023-02-28T08:02:23;20.65;;;13.75;;
23290;SDS011;11814;44.686;10.842;2023-02-28T08:04:49;19.13;;;13.18;;
23290;SDS011;11814;44.686;10.842;2023-02-28T08:07:15;19.17;;;12.02;;
23290;SDS011;11814;44.686;10.842;2023-02-28T08:09:42;20.08;;;12.73;;
23290;SDS011;11814;44.686;10.842;2023-02-28T08:12:09;18.05;;;12.65;;
23290;SDS011;11814;44.686;10.842;2023-02-28T08:14:36;21.90;;;13.73;;
23290;SDS011;11814;44.686;10.842;2023-02-28T08:17:02;21.10;;;13.13;;
23290;SDS011;11814;44.686;10.842;2023-02-28T08:19:29;19.52;;;12.63;;
23290;SDS011;11814;44.686;10.842;2023-02-28T08:21:55;19.75;;;12.70;;
23290;SDS011;11814;44.686;10.842;2023-02-28T08:24:22;19.10;;;12.55;;
23290;SDS011;11814;44.686;10.842;2023-02-28T08:26:47;22.50;;;13.15;;
23290;SDS011;11814;44.686;10.842;2023-02-28T08:29:13;22.10;;;13.38;;
23290;SDS011;11814;44.686;10.842;2023-02-28T08:31:39;27.42;;;13.88;;
23290;SDS011;11814;44.686;10.842;2023-02-28T08:34:09;22.92;;;12.20;;
23290;SDS011;11814;44.686;10.842;2023-02-28T08:36:37;17.50;;;11.98;;
23290;SDS011;11814;44.686;10.842;2023-02-28T08:39:03;16.10;;;11.10;;
23290;SDS011;11814;44.686;10.842;2023-02-28T08:41:30;20.17;;;11.68;;
23290;SDS011;11814;44.686;10.842;2023-02-28T08:43:56;18.67;;;11.43;;
23290;SDS011;11814;44.686;10.842;2023-02-28T08:46:22;19.33;;;12.20;;
23290;SDS011;11814;44.686;10.842;2023-02-28T08:48:51;16.77;;;12.00;;
23290;SDS011;11814;44.686;10.842;2023-02-28T08:51:19;20.67;;;12.02;;
23290;SDS011;11814;44.686;10.842;2023-02-28T08:53:51;18.92;;;11.32;;
23290;SDS011;11814;44.686;10.842;2023-02-28T08:56:18;17.48;;;11.93;;
23290;SDS011;11814;44.686;10.842;2023-02-28T08:58:44;19.63;;;11.55;;
23290;SDS011;11814;44.686;10.842;2023-02-28T09:01:15;16.42;;;10.85;;
23290;SDS011;11814;44.686;10.842;2023-02-28T09:03:43;19.35;;;12.23;;
23290;SDS011;11814;44.686;10.842;2023-02-28T09:06:09;19.05;;;11.27;;
23290;SDS011;11814;44.686;10.842;2023-02-28T09:08:36;18.65;;;11.55;;
23290;SDS011;11814;44.686;10.842;2023-02-28T09:11:02;19.55;;;11.77;;
23290;SDS011;11814;44.686;10.842;2023-02-28T09:13:28;19.80;;;11.82;;
23290;SDS011;11814;44.686;10.842;2023-02-28T09:15:57;20.33;;;11.73;;
23290;SDS011;11814;44.686;10.842;2023-02-28T09:18:23;19.20;;;11.70;;
23290;SDS011;11814;44.686;10.842;2023-02-28T09:20:49;18.70;;;11.35;;
23290;SDS011;11814;44.686;10.842;2023-02-28T09:23:15;18.55;;;11.52;;
23290;SDS011;11814;44.686;10.842;2023-02-28T09:25:45;17.20;;;10.95;;
23290;SDS011;11814;44.686;10.842;2023-02-28T09:28:15;15.57;;;10.15;;
23290;SDS011;11814;44.686;10.842;2023-02-28T09:30:41;21.88;;;11.32;;
23290;SDS011;11814;44.686;10.842;2023-02-28T09:33:12;18.58;;;11.10;;
23290;SDS011;11814;44.686;10.842;2023-02-28T09:35:38;16.02;;;10.85;;
23290;SDS011;11814;44.686;10.842;2023-02-28T09:38:04;18.13;;;11.50;;
23290;SDS011;11814;44.686;10.842;2023-02-28T09:40:34;18.20;;;10.32;;
23290;SDS011;11814;44.686;10.842;2023-02-28T09:43:02;18.17;;;11.95;;
23290;SDS011;11814;44.686;10.842;2023-02-28T09:45:37;14.90;;;10.20;;
23290;SDS011;11814;44.686;10.842;2023-02-28T09:48:25;14.48;;;9.98;;
23290;SDS011;11814;44.686;10.842;2023-02-28T09:51:02;16.50;;;11.10;;
23290;SDS011;11814;44.686;10.842;2023-02-28T09:53:40;14.73;;;10.88;;
23290;SDS011;11814;44.686;10.842;2023-02-28T09:56:25;18.15;;;11.25;;
23290;SDS011;11814;44.686;10.842;2023-02-28T10:04:40;20.25;;;11.43;;
23290;SDS011;11814;44.686;10.842;2023-02-28T10:08:11;18.73;;;10.98;;
23290;SDS011;11814;44.686;10.842;2023-02-28T10:13:10;17.30;;;10.23;;
23290;SDS011;11814;44.686;10.842;2023-02-28T10:15:41;20.00;;;11.23;;
23290;SDS011;11814;44.686;10.842;2023-02-28T10:18:10;14.98;;;10.90;;
23290;SDS011;11814;44.686;10.842;2023-02-28T10:20:39;20.55;;;12.15;;
23290;SDS011;11814;44.686;10.842;2023-02-28T10:26:12;17.77;;;11.15;;
23290;SDS011;11814;44.686;10.842;2023-02-28T10:28:43;17.73;;;11.38;;
23290;SDS011;11814;44.686;10.842;2023-02-28T10:31:17;18.27;;;10.85;;
23290;SDS011;11814;44.686;10.842;2023-02-28T10:33:44;15.05;;;10.32;;
23290;SDS011;11814;44.686;10.842;2023-02-28T10:36:14;14.73;;;10.27;;
23290;SDS011;11814;44.686;10.842;2023-02-28T10:38:42;16.63;;;10.70;;
23290;SDS011;11814;44.686;10.842;2023-02-28T10:41:10;18.75;;;10.95;;
23290;SDS011;11814;44.686;10.842;2023-02-28T10:43:38;17.35;;;10.63;;
23290;SDS011;11814;44.686;10.842;2023-02-28T10:48:34;15.63;;;10.40;;
23290;SDS011;11814;44.686;10.842;2023-02-28T10:51:22;16.80;;;9.95;;
23290;SDS011;11814;44.686;10.842;2023-02-28T10:53:48;17.50;;;10.60;;
23290;SDS011;11814;44.686;10.842;2023-02-28T10:56:18;16.15;;;10.32;;
23290;SDS011;11814;44.686;10.842;2023-02-28T11:01:16;15.43;;;10.38;;
23290;SDS011;11814;44.686;10.842;2023-02-28T11:03:45;17.48;;;10.02;;
23290;SDS011;11814;44.686;10.842;2023-02-28T11:06:31;16.92;;;10.63;;
23290;SDS011;11814;44.686;10.842;2023-02-28T11:08:59;16.90;;;10.48;;
23290;SDS011;11814;44.686;10.842;2023-02-28T11:11:26;15.55;;;11.10;;
23290;SDS011;11814;44.686;10.842;2023-02-28T11:13:58;15.13;;;10.30;;
23290;SDS011;11814;44.686;10.842;2023-02-28T11:16:31;24.27;;;16.35;;
23290;SDS011;11814;44.686;10.842;2023-02-28T11:19:02;17.25;;;10.82;;
23290;SDS011;11814;44.686;10.842;2023-02-28T11:21:36;15.73;;;10.40;;
23290;SDS011;11814;44.686;10.842;2023-02-28T11:24:12;19.20;;;10.40;;
23290;SDS011;11814;44.686;10.842;2023-02-28T11:26:49;18.45;;;11.90;;
23290;SDS011;11814;44.686;10.842;2023-02-28T11:34:31;17.13;;;11.10;;
23290;SDS011;11814;44.686;10.842;2023-02-28T11:36:58;19.27;;;11.43;;
23290;SDS011;11814;44.686;10.842;2023-02-28T11:39:26;19.60;;;12.70;;
23290;SDS011;11814;44.686;10.842;2023-02-28T11:44:29;16.02;;;11.48;;
23290;SDS011;11814;44.686;10.842;2023-02-28T11:53:19;17.00;;;11.38;;
23290;SDS011;11814;44.686;10.842;2023-02-28T11:55:55;19.88;;;12.55;;
23290;SDS011;11814;44.686;10.842;2023-02-28T12:03:56;18.10;;;11.68;;
23290;SDS011;11814;44.686;10.842;2023-02-28T12:09:38;20.23;;;11.85;;
23290;SDS011;11814;44.686;10.842;2023-02-28T12:15:16;17.63;;;11.85;;
23290;SDS011;11814;44.686;10.842;2023-02-28T12:20:37;16.70;;;11.63;;
23290;SDS011;11814;44.686;10.842;2023-02-28T12:23:22;23.02;;;12.77;;
23290;SDS011;11814;44.686;10.842;2023-02-28T12:28:48;16.85;;;12.15;;
23290;SDS011;11814;44.686;10.842;2023-02-28T12:31:24;21.52;;;11.82;;
23290;SDS011;11814;44.686;10.842;2023-02-28T12:33:59;17.67;;;12.35;;
23290;SDS011;11814;44.686;10.842;2023-02-28T12:36:38;19.17;;;13.18;;
23290;SDS011;11814;44.686;10.842;2023-02-28T12:39:15;22.90;;;12.85;;
23290;SDS011;11814;44.686;10.842;2023-02-28T12:42:00;23.33;;;14.18;;
23290;SDS011;11814;44.686;10.842;2023-02-28T12:44:32;20.63;;;13.52;;
23290;SDS011;11814;44.686;10.842;2023-02-28T12:47:03;20.27;;;12.75;;
23290;SDS011;11814;44.686;10.842;2023-02-28T12:49:34;20.65;;;12.43;;
23290;SDS011;11814;44.686;10.842;2023-02-28T12:52:04;18.17;;;13.75;;
23290;SDS011;11814;44.686;10.842;2023-02-28T12:54:38;23.48;;;15.30;;
23290;SDS011;11814;44.686;10.842;2023-02-28T12:57:26;19.48;;;14.32;;
23290;SDS011;11814;44.686;10.842;2023-02-28T13:00:05;23.38;;;14.43;;
23290;SDS011;11814;44.686;10.842;2023-02-28T13:14:02;21.38;;;14.23;;
23290;SDS011;11814;44.686;10.842;2023-02-28T13:19:18;20.70;;;14.98;;
23290;SDS011;11814;44.686;10.842;2023-02-28T13:21:48;26.95;;;17.35;;
23290;SDS011;11814;44.686;10.842;2023-02-28T13:29:28;24.50;;;15.65;;
23290;SDS011;11814;44.686;10.842;2023-02-28T13:34:39;21.30;;;16.38;;
23290;SDS011;11814;44.686;10.842;2023-02-28T13:39:51;23.60;;;15.55;;
23290;SDS011;11814;44.686;10.842;2023-02-28T13:47:28;20.98;;;16.73;;
23290;SDS011;11814;44.686;10.842;2023-02-28T13:50:22;20.83;;;15.55;;
23290;SDS011;11814;44.686;10.842;2023-02-28T13:56:32;22.55;;;16.23;;
23290;SDS011;11814;44.686;10.842;2023-02-28T13:59:01;22.70;;;15.15;;
23290;SDS011;11814;44.686;10.842;2023-02-28T14:01:53;22.45;;;16.15;;
23290;SDS011;11814;44.686;10.842;2023-02-28T14:07:04;23.95;;;15.70;;
23290;SDS011;11814;44.686;10.842;2023-02-28T14:09:32;23.45;;;15.52;;
23290;SDS011;11814;44.686;10.842;2023-02-28T14:15:04;22.50;;;15.77;;
23290;SDS011;11814;44.686;10.842;2023-02-28T14:17:54;22.92;;;16.52;;
23290;SDS011;11814;44.686;10.842;2023-02-28T14:20:21;24.33;;;16.88;;
23290;SDS011;11814;44.686;10.842;2023-02-28T14:23:00;20.90;;;15.52;;
23290;SDS011;11814;44.686;10.842;2023-02-28T14:25:59;21.75;;;15.25;;
23290;SDS011;11814;44.686;10.842;2023-02-28T14:28:40;24.02;;;16.08;;
23290;SDS011;11814;44.686;10.842;2023-02-28T14:31:19;22.52;;;16.77;;
23290;SDS011;11814;44.686;10.842;2023-02-28T14:36:33;28.90;;;16.45;;
23290;SDS011;11814;44.686;10.842;2023-02-28T14:39:15;23.45;;;16.92;;
23290;SDS011;11814;44.686;10.842;2023-02-28T14:41:44;26.75;;;16.45;;
23290;SDS011;11814;44.686;10.842;2023-02-28T14:44:14;24.50;;;16.90;;
23290;SDS011;11814;44.686;10.842;2023-02-28T14:46:46;27.83;;;17.55;;
23290;SDS011;11814;44.686;10.842;2023-02-28T14:49:24;26.05;;;17.60;;
23290;SDS011;11814;44.686;10.842;2023-02-28T14:52:01;22.83;;;16.73;;
23290;SDS011;11814;44.686;10.842;2023-02-28T14:54:27;23.58;;;16.25;;
23290;SDS011;11814;44.686;10.842;2023-02-28T14:56:54;24.40;;;16.80;;
23290;SDS011;11814;44.686;10.842;2023-02-28T14:59:25;23.63;;;16.10;;
23290;SDS011;11814;44.686;10.842;2023-02-28T15:04:44;23.48;;;16.88;;
23290;SDS011;11814;44.686;10.842;2023-02-28T15:07:19;23.65;;;16.33;;
23290;SDS011;11814;44.686;10.842;2023-02-28T15:10:06;24.60;;;17.30;;
23290;SDS011;11814;44.686;10.842;2023-02-28T15:12:36;25.33;;;16.83;;
23290;SDS011;11814;44.686;10.842;2023-02-28T15:15:02;27.95;;;18.75;;
23290;SDS011;11814;44.686;10.842;2023-02-28T15:17:29;29.13;;;17.80;;
23290;SDS011;11814;44.686;10.842;2023-02-28T15:19:55;24.17;;;17.98;;
23290;SDS011;11814;44.686;10.842;2023-02-28T15:22:28;29.52;;;19.85;;
23290;SDS011;11814;44.686;10.842;2023-02-28T15:25:00;29.83;;;20.98;;
23290;SDS011;11814;44.686;10.842;2023-02-28T15:27:31;31.15;;;22.15;;
23290;SDS011;11814;44.686;10.842;2023-02-28T15:29:59;32.70;;;22.45;;
23290;SDS011;11814;44.686;10.842;2023-02-28T15:32:36;31.45;;;21.80;;
23290;SDS011;11814;44.686;10.842;2023-02-28T15:37:54;30.58;;;22.15;;
23290;SDS011;11814;44.686;10.842;2023-02-28T15:40:42;31.15;;;21.65;;
23290;SDS011;11814;44.686;10.842;2023-02-28T15:45:48;31.77;;;23.38;;
23290;SDS011;11814;44.686;10.842;2023-02-28T15:48:31;31.73;;;22.80;;
23290;SDS011;11814;44.686;10.842;2023-02-28T15:51:35;36.20;;;21.77;;
23290;SDS011;11814;44.686;10.842;2023-02-28T15:54:05;31.25;;;21.95;;
23290;SDS011;11814;44.686;10.842;2023-02-28T15:56:42;36.30;;;23.67;;
23290;SDS011;11814;44.686;10.842;2023-02-28T15:59:16;34.80;;;24.02;;
23290;SDS011;11814;44.686;10.842;2023-02-28T16:02:01;37.08;;;24.80;;
23290;SDS011;11814;44.686;10.842;2023-02-28T16:04:54;37.45;;;24.20;;
23290;SDS011;11814;44.686;10.842;2023-02-28T16:07:26;36.13;;;24.15;;
23290;SDS011;11814;44.686;10.842;2023-02-28T16:09:52;39.38;;;25.00;;
23290;SDS011;11814;44.686;10.842;2023-02-28T16:12:18;36.85;;;24.65;;
23290;SDS011;11814;44.686;10.842;2023-02-28T16:14:50;38.92;;;26.15;;
23290;SDS011;11814;44.686;10.842;2023-02-28T16:17:22;35.08;;;23.95;;
23290;SDS011;11814;44.686;10.842;2023-02-28T16:19:49;37.38;;;24.25;;
23290;SDS011;11814;44.686;10.842;2023-02-28T16:22:15;35.50;;;24.15;;
23290;SDS011;11814;44.686;10.842;2023-02-28T16:24:41;33.33;;;23.58;;
23290;SDS011;11814;44.686;10.842;2023-02-28T16:27:09;34.60;;;23.88;;
23290;SDS011;11814;44.686;10.842;2023-02-28T16:29:52;33.65;;;23.80;;
23290;SDS011;11814;44.686;10.842;2023-02-28T16:32:18;35.25;;;24.10;;
23290;SDS011;11814;44.686;10.842;2023-02-28T16:34:44;35.70;;;23.23;;
23290;SDS011;11814;44.686;10.842;2023-02-28T16:37:14;31.13;;;22.80;;
23290;SDS011;11814;44.686;10.842;2023-02-28T16:39:42;28.92;;;21.52;;
23290;SDS011;11814;44.686;10.842;2023-02-28T16:42:16;33.47;;;21.35;;
23290;SDS011;11814;44.686;10.842;2023-02-28T16:44:48;31.58;;;22.08;;
23290;SDS011;11814;44.686;10.842;2023-02-28T16:47:14;34.20;;;22.05;;
23290;SDS011;11814;44.686;10.842;2023-02-28T16:49:40;34.88;;;23.55;;
23290;SDS011;11814;44.686;10.842;2023-02-28T16:52:08;32.22;;;21.35;;